createdAt,value
2023-03-28T00:01:41.358Z,39.47
2023-03-28T00:04:11.516Z,39.35
2023-03-28T00:06:41.548Z,39.37
2023-03-28T00:09:11.027Z,39.51
2023-03-28T00:11:39.236Z,39.45
2023-03-28T00:14:08.270Z,39.35
2023-03-28T00:16:39.284Z,39.41
2023-03-28T00:19:11.592Z,39.43
2023-03-28T00:21:41.359Z,39.80
2023-03-28T00:24:13.767Z,39.65
2023-03-28T00:26:43.013Z,39.34
2023-03-28T00:29:15.746Z,39.73
2023-03-28T00:31:44.083Z,39.70
2023-03-28T00:34:13.323Z,39.54
2023-03-28T00:36:41.859Z,39.50
2023-03-28T00:39:11.228Z,39.58
2023-03-28T00:41:42.218Z,39.64
2023-03-28T00:44:43.640Z,39.90
2023-03-28T00:47:25.813Z,39.78
2023-03-28T00:49:58.510Z,39.43
2023-03-28T00:52:30.599Z,39.65
2023-03-28T00:54:59.549Z,39.60
2023-03-28T00:57:29.517Z,39.52
2023-03-28T00:59:57.482Z,39.81
2023-03-28T01:02:25.566Z,39.62
2023-03-28T01:04:59.403Z,39.49
2023-03-28T01:07:35.326Z,39.41
2023-03-28T01:10:05.143Z,39.70
2023-03-28T01:12:34.390Z,39.59
2023-03-28T01:15:03.971Z,39.64
2023-03-28T01:17:42.373Z,39.57
2023-03-28T01:20:46.829Z,39.90
2023-03-28T01:23:37.507Z,39.98
2023-03-28T01:26:37.374Z,39.85
2023-03-28T01:29:38.474Z,39.95
2023-03-28T01:32:55.137Z,40.02
2023-03-28T01:36:02.580Z,39.92
2023-03-28T01:38:37.835Z,39.98
2023-03-28T01:41:11.824Z,39.75
2023-03-28T01:43:53.262Z,40.02
2023-03-28T01:46:28.238Z,40.13
2023-03-28T01:49:05.783Z,39.80
2023-03-28T01:51:48.296Z,40.06
2023-03-28T01:54:28.993Z,40.06
2023-03-28T01:57:05.931Z,40.00
2023-03-28T01:59:40.154Z,40.13
2023-03-28T02:02:31.286Z,39.84
2023-03-28T02:05:23.674Z,39.96
2023-03-28T02:07:55.862Z,39.96
2023-03-28T02:10:47.715Z,39.98
2023-03-28T02:13:37.875Z,40.21
2023-03-28T02:16:26.641Z,39.88
2023-03-28T02:19:08.525Z,39.98
2023-03-28T02:22:11.885Z,39.99
2023-03-28T02:24:52.152Z,39.99
2023-03-28T02:27:45.568Z,40.02
2023-03-28T02:30:32.030Z,40.13
2023-03-28T02:33:01.287Z,39.94
2023-03-28T02:35:47.959Z,40.15
2023-03-28T02:38:21.362Z,40.08
2023-03-28T02:41:00.348Z,40.09
2023-03-28T02:43:44.771Z,40.11
2023-03-28T02:46:29.257Z,40.18
2023-03-28T02:49:20.740Z,40.13
2023-03-28T02:51:56.961Z,40.09
2023-03-28T02:54:34.451Z,40.13
2023-03-28T02:57:33.393Z,40.27
2023-03-28T03:00:10.941Z,40.18
2023-03-28T03:02:39.778Z,40.02
2023-03-28T03:05:09.682Z,39.94
2023-03-28T03:07:38.665Z,40.00
2023-03-28T03:10:07.733Z,40.11
2023-03-28T03:12:37.493Z,39.95
2023-03-28T03:15:08.511Z,40.01
2023-03-28T03:17:59.681Z,40.02
2023-03-28T03:20:34.455Z,39.97
2023-03-28T03:23:04.325Z,40.06
2023-03-28T03:25:34.660Z,40.07
2023-03-28T03:28:32.083Z,40.09
2023-03-28T03:31:03.601Z,39.98
2023-03-28T03:33:50.435Z,40.12
2023-03-28T03:36:22.776Z,40.25
2023-03-28T03:38:50.753Z,40.06
2023-03-28T03:41:22.535Z,40.33
2023-03-28T03:43:50.715Z,40.17
2023-03-28T03:46:20.078Z,40.28
2023-03-28T03:48:50.567Z,40.37
2023-03-28T03:51:19.363Z,40.23
2023-03-28T03:53:50.726Z,40.20
2023-03-28T03:56:21.203Z,40.30
2023-03-28T03:58:57.761Z,40.41
2023-03-28T04:01:32.215Z,40.65
2023-03-28T04:04:12.166Z,40.47
2023-03-28T04:06:59.790Z,40.50
2023-03-28T04:09:29.153Z,40.37
2023-03-28T04:12:00.801Z,40.33
2023-03-28T04:14:29.096Z,40.32
2023-03-28T04:17:21.365Z,40.10
2023-03-28T04:19:49.758Z,40.53
2023-03-28T04:22:19.209Z,40.43
2023-03-28T04:24:53.388Z,40.33
2023-03-28T04:27:35.753Z,40.71
2023-03-28T04:30:04.661Z,40.46
2023-03-28T04:32:59.005Z,40.52
2023-03-28T04:35:29.832Z,40.47
2023-03-28T04:37:58.855Z,40.51
2023-03-28T04:40:29.260Z,40.60
2023-03-28T04:43:13.283Z,40.51
2023-03-28T04:45:48.040Z,40.54
2023-03-28T04:48:19.703Z,40.69
2023-03-28T04:50:48.571Z,40.53
2023-03-28T04:53:17.421Z,40.69
2023-03-28T04:56:04.286Z,40.61
2023-03-28T04:58:33.393Z,40.50
2023-03-28T05:01:03.707Z,40.51
2023-03-28T05:03:55.736Z,40.31
2023-03-28T05:06:25.854Z,40.21
2023-03-28T05:08:53.852Z,40.63
2023-03-28T05:11:26.653Z,40.40
2023-03-28T05:13:54.584Z,40.78
2023-03-28T05:16:33.551Z,40.59
2023-03-28T05:19:22.775Z,40.96
2023-03-28T05:22:10.586Z,40.86
2023-03-28T05:24:42.232Z,40.64
2023-03-28T05:27:17.962Z,40.71
2023-03-28T05:29:50.465Z,40.89
2023-03-28T05:32:19.841Z,40.83
2023-03-28T05:34:49.265Z,40.93
2023-03-28T05:37:17.264Z,40.70
2023-03-28T05:39:55.749Z,40.82
2023-03-28T05:42:23.904Z,40.95
2023-03-28T05:44:52.142Z,40.98
2023-03-28T05:47:37.230Z,41.09
2023-03-28T05:50:08.229Z,40.96
2023-03-28T05:52:36.283Z,41.08
2023-03-28T05:55:08.380Z,40.99
2023-03-28T05:57:36.684Z,41.37
2023-03-28T06:00:14.888Z,41.28
2023-03-28T06:02:54.769Z,41.51
2023-03-28T06:05:41.914Z,41.89
2023-03-28T06:08:18.969Z,41.67
2023-03-28T06:10:46.979Z,41.79
2023-03-28T06:13:21.700Z,41.76
2023-03-28T06:15:49.678Z,41.95
2023-03-28T06:18:19.305Z,42.03
2023-03-28T06:20:51.725Z,42.17
2023-03-28T06:23:19.603Z,42.30
2023-03-28T06:25:47.549Z,42.52
2023-03-28T06:28:18.408Z,42.57
2023-03-28T06:31:05.859Z,42.49
2023-03-28T06:33:33.847Z,42.48
2023-03-28T06:36:03.386Z,42.35
2023-03-28T06:38:38.098Z,42.38
2023-03-28T06:41:07.198Z,42.64
2023-03-28T06:43:36.538Z,42.72
2023-03-28T06:46:30.445Z,42.53
2023-03-28T06:48:58.327Z,42.37
2023-03-28T06:51:30.334Z,42.79
2023-03-28T06:53:59.375Z,42.79
2023-03-28T06:56:31.077Z,42.96
2023-03-28T06:59:00.387Z,43.22
2023-03-28T07:01:34.135Z,43.43
2023-03-28T07:04:11.257Z,43.56
2023-03-28T07:06:42.895Z,43.42
2023-03-28T07:09:10.965Z,43.86
2023-03-28T07:11:46.627Z,43.70
2023-03-28T07:14:14.635Z,43.74
2023-03-28T07:16:42.720Z,44.06
2023-03-28T07:19:11.854Z,43.76
2023-03-28T07:21:44.565Z,43.65
2023-03-28T07:24:12.603Z,43.94
2023-03-28T07:26:54.851Z,43.77
2023-03-28T07:29:29.401Z,43.94
2023-03-28T07:31:57.394Z,43.89
2023-03-28T07:34:27.077Z,43.60
2023-03-28T07:36:57.118Z,42.93
2023-03-28T07:39:57.471Z,43.44
2023-03-28T07:42:28.084Z,42.85
2023-03-28T07:44:56.266Z,42.57
2023-03-28T07:47:24.076Z,42.08
2023-03-28T07:49:52.622Z,41.83
2023-03-28T07:52:28.025Z,41.46
2023-03-28T07:54:56.199Z,41.30
2023-03-28T07:57:24.295Z,40.96
2023-03-28T07:59:52.501Z,40.63
2023-03-28T08:02:24.558Z,39.42
2023-03-28T08:04:54.009Z,40.04
2023-03-28T08:07:28.873Z,39.21
2023-03-28T08:09:58.806Z,39.45
2023-03-28T08:12:29.217Z,39.01
2023-03-28T08:14:57.329Z,38.72
2023-03-28T08:17:26.563Z,38.59
2023-03-28T08:19:55.243Z,38.72
2023-03-28T08:22:23.400Z,38.72
2023-03-28T08:25:18.862Z,38.19
2023-03-28T08:27:47.632Z,38.03
2023-03-28T08:30:15.886Z,38.32
2023-03-28T08:32:51.176Z,38.18
2023-03-28T08:35:19.493Z,38.21
2023-03-28T08:37:51.298Z,38.01
2023-03-28T08:40:23.249Z,38.04
2023-03-28T08:43:06.527Z,37.37
2023-03-28T08:45:51.536Z,37.13
2023-03-28T08:48:23.883Z,37.69
2023-03-28T08:50:56.885Z,37.45
2023-03-28T08:53:30.346Z,37.14
2023-03-28T08:56:02.978Z,37.60
2023-03-28T08:58:35.813Z,37.75
2023-03-28T09:01:04.436Z,37.58
2023-03-28T09:03:37.461Z,37.38
2023-03-28T09:06:20.762Z,37.20
2023-03-28T09:09:16.226Z,37.28
2023-03-28T09:11:58.152Z,36.54
2023-03-28T09:14:51.996Z,36.29
2023-03-28T09:17:27.778Z,36.84
2023-03-28T09:20:12.392Z,36.88
2023-03-28T09:23:36.248Z,36.31
2023-03-28T09:26:36.228Z,37.03
2023-03-28T09:29:14.750Z,36.09
2023-03-28T09:31:47.715Z,35.72
2023-03-28T09:34:23.047Z,36.15
2023-03-28T09:36:57.717Z,36.60
2023-03-28T09:39:33.983Z,36.38
2023-03-28T09:42:09.303Z,35.80
2023-03-28T09:45:12.805Z,35.65
2023-03-28T09:47:59.124Z,36.18
2023-03-28T09:50:30.454Z,36.17
2023-03-28T09:53:01.172Z,36.44
2023-03-28T09:55:32.287Z,35.89
2023-03-28T09:58:06.607Z,35.18
2023-03-28T10:00:51.886Z,35.18
2023-03-28T10:03:39.048Z,35.42
2023-03-28T10:06:21.072Z,34.08
2023-03-28T10:08:50.358Z,34.97
2023-03-28T10:11:27.336Z,34.69
2023-03-28T10:13:56.510Z,34.86
2023-03-28T10:16:29.801Z,34.32
2023-03-28T10:19:14.308Z,34.23
2023-03-28T10:22:05.598Z,34.38
2023-03-28T10:24:36.045Z,34.68
2023-03-28T10:27:10.016Z,33.35
2023-03-28T10:29:39.686Z,34.25
2023-03-28T10:32:13.447Z,33.47
2023-03-28T10:34:45.796Z,34.14
2023-03-28T10:37:26.224Z,32.94
2023-03-28T10:40:27.997Z,32.85
2023-03-28T10:43:16.720Z,33.45
2023-03-28T10:46:15.657Z,32.24
2023-03-28T10:49:24.064Z,33.23
2023-03-28T10:52:15.497Z,31.72
2023-03-28T10:54:57.348Z,31.49
2023-03-28T10:57:53.896Z,32.12
2023-03-28T11:00:30.607Z,32.05
2023-03-28T11:03:18.691Z,31.04
2023-03-28T11:06:08.925Z,31.52
2023-03-28T11:08:53.909Z,31.90
2023-03-28T11:11:41.646Z,31.90
2023-03-28T11:14:22.452Z,31.84
2023-03-28T11:16:58.834Z,31.71
2023-03-28T11:20:08.757Z,31.25
2023-03-28T11:23:05.155Z,31.34
2023-03-28T11:25:47.069Z,32.55
2023-03-28T11:28:51.579Z,30.91
2023-03-28T11:31:28.024Z,32.25
2023-03-28T11:34:03.034Z,31.85
2023-03-28T11:36:35.898Z,31.85
2023-03-28T11:39:14.886Z,31.03
2023-03-28T11:41:46.083Z,31.94
2023-03-28T11:44:22.335Z,31.55
2023-03-28T11:46:55.663Z,31.62
2023-03-28T11:49:31.725Z,31.14
2023-03-28T11:52:05.669Z,31.29
2023-03-28T11:54:41.369Z,30.32
2023-03-28T11:57:15.252Z,30.63
2023-03-28T11:59:56.001Z,30.86
2023-03-28T12:02:47.446Z,29.88
2023-03-28T12:05:23.364Z,30.42
2023-03-28T12:07:56.595Z,31.12
2023-03-28T12:10:36.026Z,31.08
2023-03-28T12:13:14.390Z,30.09
2023-03-28T12:15:56.812Z,31.29
2023-03-28T12:18:30.537Z,30.79
2023-03-28T12:21:07.727Z,30.28
2023-03-28T12:23:53.652Z,30.02
2023-03-28T12:26:55.919Z,30.09
2023-03-28T12:29:32.050Z,29.84
2023-03-28T12:32:05.320Z,30.62
2023-03-28T12:34:39.553Z,29.58
2023-03-28T12:37:59.722Z,31.01
2023-03-28T12:41:12.146Z,30.08
2023-03-28T12:43:48.404Z,30.05
2023-03-28T12:46:24.413Z,30.86
2023-03-28T12:48:58.410Z,30.62
2023-03-28T12:51:33.929Z,30.36
2023-03-28T12:54:08.300Z,29.86
2023-03-28T12:56:37.405Z,30.52
2023-03-28T12:59:59.066Z,28.94
2023-03-28T13:02:50.605Z,29.26
2023-03-28T13:05:24.245Z,29.58
2023-03-28T13:08:55.157Z,28.99
2023-03-28T13:11:38.557Z,28.81
2023-03-28T13:14:26.252Z,28.23
2023-03-28T13:16:58.091Z,28.91
2023-03-28T13:19:39.481Z,27.93
2023-03-28T13:22:38.611Z,28.18
2023-03-28T13:30:04.005Z,27.80
2023-03-28T13:46:18.004Z,28.66
2023-03-28T13:48:52.226Z,28.50
2023-03-28T13:51:24.287Z,28.46
2023-03-28T13:53:52.604Z,28.81
2023-03-28T13:56:24.818Z,28.37
2023-03-28T13:58:55.472Z,28.51
2023-03-28T14:01:27.261Z,28.16
2023-03-28T14:03:56.417Z,28.54
2023-03-28T14:06:26.762Z,28.32
2023-03-28T14:08:56.912Z,28.14
2023-03-28T14:11:39.634Z,27.07
2023-03-28T14:15:13.113Z,27.32
2023-03-28T14:22:53.169Z,27.16
2023-03-28T14:29:33.078Z,27.29
2023-03-28T14:38:35.914Z,28.00
2023-03-28T14:41:16.157Z,27.63
2023-03-28T14:43:59.612Z,28.11
2023-03-28T14:46:34.502Z,27.47
2023-03-28T14:49:10.163Z,27.46
2023-03-28T14:51:43.352Z,27.40
2023-03-28T14:54:20.412Z,27.65
2023-03-28T14:56:54.718Z,28.09
2023-03-28T14:59:41.448Z,27.46
2023-03-28T15:02:24.521Z,26.95
2023-03-28T15:05:14.328Z,28.03
2023-03-28T15:08:06.375Z,26.62
2023-03-28T15:10:49.153Z,27.27
2023-03-28T15:13:23.355Z,26.95
2023-03-28T15:15:57.503Z,27.88
2023-03-28T15:18:33.800Z,27.41
2023-03-28T15:21:04.950Z,27.36
2023-03-28T15:24:04.337Z,27.13
2023-03-28T15:26:38.212Z,27.13
2023-03-28T15:32:03.802Z,27.56
2023-03-28T15:38:05.609Z,27.34
2023-03-28T15:40:40.262Z,26.95
2023-03-28T15:43:35.859Z,26.82
2023-03-28T15:46:18.281Z,26.83
2023-03-28T15:48:46.736Z,27.72
2023-03-28T15:51:21.781Z,27.62
2023-03-28T15:53:56.088Z,28.16
2023-03-28T15:56:34.109Z,27.15
2023-03-28T15:59:14.635Z,27.28
2023-03-28T16:01:50.575Z,27.83
2023-03-28T16:08:04.700Z,27.38
2023-03-28T16:10:45.388Z,27.64
2023-03-28T16:13:55.224Z,27.70
2023-03-28T16:17:08.949Z,27.92
2023-03-28T16:23:08.341Z,28.12
2023-03-28T16:25:41.481Z,28.26
2023-03-28T16:28:17.148Z,27.41
2023-03-28T16:30:45.848Z,28.29
2023-03-28T16:33:14.077Z,28.15
2023-03-28T16:35:42.514Z,28.02
2023-03-28T16:38:12.833Z,27.96
2023-03-28T16:40:41.841Z,28.09
2023-03-28T16:43:10.888Z,28.41
2023-03-28T16:45:39.006Z,28.29
2023-03-28T16:52:59.652Z,27.94
2023-03-28T16:55:53.708Z,27.79
2023-03-28T16:58:30.255Z,28.73
2023-03-28T17:01:06.346Z,28.47
2023-03-28T17:03:38.571Z,28.26
2023-03-28T17:06:20.574Z,28.52
2023-03-28T17:08:49.550Z,28.21
2023-03-28T17:11:20.643Z,28.31
2023-03-28T17:13:52.040Z,28.10
2023-03-28T17:16:20.499Z,28.29
2023-03-28T17:18:48.693Z,28.76
2023-03-28T17:21:18.334Z,28.82
2023-03-28T17:23:49.057Z,28.34
2023-03-28T17:26:18.952Z,28.58
2023-03-28T17:28:47.116Z,28.71
2023-03-28T17:31:17.651Z,28.88
2023-03-28T17:33:47.127Z,28.79
2023-03-28T17:36:21.029Z,28.65
2023-03-28T17:38:50.401Z,28.61
2023-03-28T17:41:23.112Z,28.63
2023-03-28T17:43:51.329Z,29.29
2023-03-28T17:46:19.548Z,28.64
2023-03-28T17:48:47.554Z,28.93
2023-03-28T17:51:16.284Z,28.44
2023-03-28T17:53:46.945Z,28.94
2023-03-28T17:56:15.789Z,28.45
2023-03-28T17:58:45.572Z,28.42
2023-03-28T18:01:16.639Z,28.61
2023-03-28T18:03:45.817Z,29.07
2023-03-28T18:06:24.155Z,28.64
2023-03-28T18:08:52.068Z,28.97
2023-03-28T18:11:20.150Z,28.68
2023-03-28T18:13:50.171Z,28.65
2023-03-28T18:16:19.060Z,29.14
2023-03-28T18:18:47.238Z,28.81
2023-03-28T18:21:15.626Z,29.10
2023-03-28T18:23:43.544Z,28.69
2023-03-28T18:26:12.196Z,29.04
2023-03-28T18:28:40.577Z,28.53
2023-03-28T18:31:11.627Z,29.00
2023-03-28T18:33:40.937Z,28.75
2023-03-28T18:36:10.102Z,28.78
2023-03-28T18:38:38.883Z,29.09
2023-03-28T18:41:08.278Z,28.73
2023-03-28T18:43:37.196Z,29.30
2023-03-28T18:46:08.224Z,29.00
2023-03-28T18:48:37.552Z,29.35
2023-03-28T18:51:06.979Z,29.83
2023-03-28T18:53:35.033Z,29.96
2023-03-28T18:56:03.434Z,29.88
2023-03-28T18:58:31.528Z,30.46
2023-03-28T19:01:01.143Z,30.47
2023-03-28T19:03:31.612Z,30.43
2023-03-28T19:06:02.348Z,30.48
2023-03-28T19:08:30.965Z,31.04
2023-03-28T19:11:00.720Z,30.62
2023-03-28T19:13:30.388Z,30.86
2023-03-28T19:15:59.670Z,30.87
2023-03-28T19:18:28.339Z,31.40
2023-03-28T19:20:58.127Z,31.44
2023-03-28T19:23:28.998Z,31.58
2023-03-28T19:25:57.242Z,31.79
2023-03-28T19:28:25.589Z,32.00
2023-03-28T19:31:01.298Z,32.81
2023-03-28T19:33:30.291Z,32.31
2023-03-28T19:35:58.824Z,32.50
2023-03-28T19:38:30.731Z,32.75
2023-03-28T19:40:59.513Z,32.66
2023-03-28T19:43:28.534Z,32.73
2023-03-28T19:46:02.192Z,33.64
2023-03-28T19:48:30.305Z,33.06
2023-03-28T19:50:58.727Z,33.22
2023-03-28T19:53:28.710Z,34.14
2023-03-28T19:55:58.899Z,34.17
2023-03-28T19:58:28.359Z,33.98
2023-03-28T20:00:57.108Z,34.40
2023-03-28T20:03:25.266Z,34.54
2023-03-28T20:05:53.242Z,34.58
2023-03-28T20:08:21.612Z,34.93
2023-03-28T20:10:52.537Z,35.62
2023-03-28T20:13:20.886Z,35.56
2023-03-28T20:15:48.795Z,35.31
2023-03-28T20:18:20.907Z,35.90
2023-03-28T20:20:52.900Z,36.00
2023-03-28T20:23:22.327Z,35.97
2023-03-28T20:25:53.178Z,36.17
2023-03-28T20:28:24.428Z,35.82
2023-03-28T20:30:53.402Z,35.89
2023-03-28T20:33:21.565Z,36.51
2023-03-28T20:35:52.899Z,37.20
2023-03-28T20:38:21.318Z,36.81
2023-03-28T20:40:49.535Z,36.53
2023-03-28T20:43:21.204Z,36.70
2023-03-28T20:45:53.741Z,37.62
2023-03-28T20:48:26.030Z,36.65
2023-03-28T20:50:55.217Z,36.73
2023-03-28T20:53:24.191Z,37.14
2023-03-28T20:56:01.880Z,38.75
2023-03-28T20:58:32.673Z,37.45
2023-03-28T21:01:02.146Z,37.45
2023-03-28T21:03:46.672Z,37.20
2023-03-28T21:06:16.137Z,37.12
2023-03-28T21:08:47.020Z,37.63
2023-03-28T21:11:16.580Z,37.29
2023-03-28T21:13:46.616Z,37.71
2023-03-28T21:16:15.867Z,37.94
2023-03-28T21:18:44.044Z,37.98
2023-03-28T21:21:13.358Z,38.10
2023-03-28T21:23:42.214Z,37.79
2023-03-28T21:26:12.793Z,38.05
2023-03-28T21:28:41.107Z,37.81
2023-03-28T21:31:13.232Z,38.45
2023-03-28T21:33:42.647Z,38.19
2023-03-28T21:36:12.855Z,38.31
2023-03-28T21:38:41.732Z,38.53
2023-03-28T21:41:11.592Z,38.46
2023-03-28T21:43:40.251Z,38.42
2023-03-28T21:46:11.278Z,38.64
2023-03-28T21:48:39.974Z,38.91
2023-03-28T21:51:07.888Z,38.53
2023-03-28T21:53:37.277Z,39.08
2023-03-28T21:56:06.622Z,38.45
2023-03-28T21:58:35.278Z,39.12
2023-03-28T22:01:04.151Z,39.00
2023-03-28T22:03:37.064Z,39.70
2023-03-28T22:06:06.768Z,39.17
2023-03-28T22:08:34.615Z,39.13
2023-03-28T22:11:04.792Z,39.31
2023-03-28T22:13:33.071Z,39.48
2023-03-28T22:16:00.964Z,39.10
2023-03-28T22:18:30.579Z,39.65
2023-03-28T22:21:02.412Z,39.70
2023-03-28T22:23:31.006Z,39.26
2023-03-28T22:25:58.844Z,39.29
2023-03-28T22:28:27.011Z,39.59
2023-03-28T22:30:56.101Z,39.26
2023-03-28T22:33:25.170Z,39.72
2023-03-28T22:35:53.420Z,39.78
2023-03-28T22:38:22.704Z,39.67
2023-03-28T22:40:50.841Z,39.45
2023-03-28T22:43:19.196Z,39.89
2023-03-28T22:45:47.345Z,39.46
2023-03-28T22:48:15.237Z,39.58
2023-03-28T22:50:44.446Z,39.74
2023-03-28T22:53:14.419Z,39.73
2023-03-28T22:55:46.284Z,40.04
2023-03-28T22:58:14.353Z,39.43
2023-03-28T23:00:43.722Z,39.74
2023-03-28T23:03:12.197Z,39.71
2023-03-28T23:05:40.240Z,39.62
2023-03-28T23:08:08.478Z,40.02
2023-03-28T23:10:36.466Z,39.97
2023-03-28T23:13:05.994Z,40.28
2023-03-28T23:15:34.069Z,40.07
2023-03-28T23:18:01.941Z,40.31
2023-03-28T23:20:29.921Z,40.45
2023-03-28T23:22:57.711Z,39.97
2023-03-28T23:25:25.995Z,40.26
2023-03-28T23:27:53.818Z,40.24
2023-03-28T23:30:23.067Z,40.46
2023-03-28T23:32:51.225Z,40.80
2023-03-28T23:35:19.140Z,40.84
2023-03-28T23:37:46.891Z,40.76
2023-03-28T23:40:15.573Z,40.51
2023-03-28T23:42:44.911Z,40.46
2023-03-28T23:45:14.898Z,40.82
2023-03-28T23:47:45.130Z,40.80
2023-03-28T23:50:14.257Z,40.80
2023-03-28T23:52:42.082Z,40.94
2023-03-28T23:55:10.185Z,41.11
2023-03-28T23:57:38.034Z,40.61
